Time;durP1;ratioP1;P1;durP2;ratioP2;P2;SDS_P1;SDS_P2;PMS_P1;PMS_P2;Temp;Humidity;BMP_temperature;BMP_pressure;BME280_temperature;BME280_humidity;BME280_pressure;Samples;Min_cycle;Max_cycle;Signal;HPM_P1;HPM_P2
2022/01/10 00:01:04;;;;;;;18.80;6.38;;;2.10;99.90;;;;;;5034862;28;20056;-66
2022/01/10 00:03:30;;;;;;;19.35;6.18;;;2.10;99.90;;;;;;5035369;28;20045;-66
2022/01/10 00:05:55;;;;;;;18.27;6.53;;;2.10;99.90;;;;;;5051748;28;20629;-67
2022/01/10 00:08:21;;;;;;;18.52;6.72;;;2.10;99.90;;;;;;5018872;28;20064;-65
2022/01/10 00:10:47;;;;;;;15.90;6.07;;;2.00;99.90;;;;;;5052785;28;20057;-64
2022/01/10 00:13:13;;;;;;;20.85;5.95;;;2.00;99.90;;;;;;5053104;28;20049;-65
2022/01/10 00:15:39;;;;;;;19.85;7.13;;;1.90;99.90;;;;;;5034672;28;20048;-65
2022/01/10 00:18:04;;;;;;;19.30;6.40;;;1.90;99.90;;;;;;5034955;28;20052;-66
2022/01/10 00:20:30;;;;;;;18.67;6.22;;;1.90;99.90;;;;;;5035051;28;20401;-66
2022/01/10 00:22:56;;;;;;;14.57;6.10;;;1.90;99.90;;;;;;5034719;28;20056;-65
2022/01/10 00:25:22;;;;;;;19.10;6.50;;;1.80;99.90;;;;;;5018370;28;20460;-66
2022/01/10 00:27:51;;;;;;;15.05;6.78;;;1.80;99.90;;;;;;5034715;28;20060;-65
2022/01/10 00:30:17;;;;;;;17.17;6.97;;;1.70;99.90;;;;;;5052880;28;20037;-66
2022/01/10 00:32:44;;;;;;;20.30;6.13;;;1.70;99.90;;;;;;5033462;28;20102;-66
2022/01/10 00:35:11;;;;;;;17.08;7.60;;;1.70;99.90;;;;;;5052617;28;20045;-66
2022/01/10 00:37:39;;;;;;;20.77;6.63;;;1.70;99.90;;;;;;5034539;28;20057;-65
2022/01/10 00:40:06;;;;;;;15.25;6.50;;;1.60;99.90;;;;;;5034604;28;20037;-65
2022/01/10 00:42:32;;;;;;;18.35;6.43;;;1.60;99.90;;;;;;5052366;28;20045;-67
2022/01/10 00:45:01;;;;;;;16.60;6.00;;;1.50;99.90;;;;;;5035101;28;20503;-67
2022/01/10 00:47:27;;;;;;;23.17;6.45;;;1.50;99.90;;;;;;5032117;28;20072;-67
2022/01/10 00:49:52;;;;;;;16.50;6.50;;;1.50;99.90;;;;;;5035149;28;20085;-65
2022/01/10 00:52:18;;;;;;;21.05;6.75;;;1.40;99.90;;;;;;5034901;28;20469;-66
2022/01/10 00:54:44;;;;;;;17.08;5.70;;;1.30;99.90;;;;;;5035323;28;20053;-65
2022/01/10 00:57:09;;;;;;;19.25;6.50;;;1.30;99.90;;;;;;5035202;28;20388;-65
2022/01/10 00:59:35;;;;;;;16.13;6.28;;;1.30;99.90;;;;;;5018904;28;20052;-67
2022/01/10 01:02:01;;;;;;;20.92;7.20;;;1.30;99.90;;;;;;5033574;28;20462;-65
2022/01/10 01:04:27;;;;;;;17.75;6.32;;;1.30;99.90;;;;;;5034871;28;20378;-65
2022/01/10 01:06:53;;;;;;;22.35;7.75;;;1.20;99.90;;;;;;5034562;28;20088;-65
2022/01/10 01:09:24;;;;;;;15.68;6.05;;;1.20;99.90;;;;;;5018627;28;20099;-65
2022/01/10 01:14:38;;;;;;;25.35;7.40;;;1.10;99.90;;;;;;4995003;28;20058;-66
2022/01/10 01:17:14;;;;;;;23.55;6.70;;;1.10;99.90;;;;;;5012373;28;20050;-66
2022/01/10 01:20:07;;;;;;;15.52;6.53;;;1.10;99.90;;;;;;4998250;28;20057;-65
2022/01/10 01:25:16;;;;;;;19.42;6.95;;;0.90;99.90;;;;;;5016550;28;20050;-66
2022/01/10 01:27:43;;;;;;;18.05;6.88;;;0.90;99.90;;;;;;4998684;28;20356;-66
2022/01/10 01:30:10;;;;;;;20.17;6.47;;;0.80;99.90;;;;;;4998928;28;20053;-65
2022/01/10 01:32:36;;;;;;;24.80;6.82;;;0.80;99.90;;;;;;5035295;28;20444;-66
2022/01/10 01:35:06;;;;;;;19.75;6.30;;;0.80;99.90;;;;;;5018314;28;20486;-65
2022/01/10 01:37:32;;;;;;;21.17;6.18;;;0.80;99.90;;;;;;5018233;28;20092;-65
2022/01/10 01:39:59;;;;;;;18.98;6.28;;;0.70;99.90;;;;;;5018454;28;20057;-65
2022/01/10 01:44:55;;;;;;;14.60;6.18;;;0.70;99.90;;;;;;4998102;28;20053;-67
2022/01/10 01:47:21;;;;;;;17.25;6.50;;;0.70;99.90;;;;;;4998379;28;20095;-66
2022/01/10 01:49:47;;;;;;;18.10;6.07;;;0.60;99.90;;;;;;4998588;28;20478;-67
2022/01/10 01:52:12;;;;;;;15.35;6.78;;;0.60;99.90;;;;;;4998234;28;20086;-66
2022/01/10 01:54:38;;;;;;;18.25;7.18;;;0.50;99.90;;;;;;4998472;28;20061;-65
2022/01/10 01:57:04;;;;;;;25.88;9.25;;;0.50;99.90;;;;;;5015724;28;20064;-67
2022/01/10 01:59:30;;;;;;;48.63;19.52;;;0.50;99.90;;;;;;5022504;28;20160;-67
2022/01/10 02:01:56;;;;;;;43.10;16.40;;;0.40;99.90;;;;;;4998863;28;20180;-64
2022/01/10 02:04:21;;;;;;;28.38;12.50;;;0.50;99.90;;;;;;4998334;28;20097;-66
2022/01/10 02:06:47;;;;;;;21.67;8.90;;;0.40;99.90;;;;;;4997615;28;20062;-66
2022/01/10 02:09:15;;;;;;;20.48;8.05;;;0.40;99.90;;;;;;5012897;28;20057;-67
2022/01/10 02:11:41;;;;;;;20.67;8.02;;;0.40;99.90;;;;;;5035003;28;20056;-67
2022/01/10 02:14:08;;;;;;;21.70;7.28;;;0.30;99.90;;;;;;5001132;28;20041;-65
2022/01/10 02:16:44;;;;;;;22.30;8.65;;;0.30;99.90;;;;;;5026039;28;20055;-65
2022/01/10 02:19:09;;;;;;;17.30;7.55;;;0.30;99.90;;;;;;5036810;28;20053;-66
2022/01/10 02:21:35;;;;;;;52.20;22.60;;;0.30;99.90;;;;;;5055239;28;20056;-67
2022/01/10 02:24:01;;;;;;;54.78;25.88;;;0.20;99.90;;;;;;5037764;28;20383;-65
2022/01/10 02:26:27;;;;;;;59.53;26.75;;;0.20;99.90;;;;;;5020186;28;20052;-65
2022/01/10 02:28:52;;;;;;;59.47;24.10;;;0.20;99.90;;;;;;5036662;28;20049;-66
2022/01/10 02:31:18;;;;;;;40.63;18.85;;;0.20;99.90;;;;;;5034288;28;20045;-65
2022/01/10 02:33:46;;;;;;;34.95;14.73;;;0.20;99.90;;;;;;5017829;28;20182;-65
2022/01/10 02:38:48;;;;;;;24.25;9.55;;;0.10;99.90;;;;;;5018848;28;20449;-65
2022/01/10 02:41:24;;;;;;;22.17;8.93;;;0.10;99.90;;;;;;5036637;28;20393;-66
2022/01/10 02:43:51;;;;;;;16.60;8.40;;;0.00;99.90;;;;;;5054695;28;20071;-66
2022/01/10 02:46:17;;;;;;;18.13;7.97;;;0.00;99.90;;;;;;5017000;28;20398;-66
2022/01/10 02:48:43;;;;;;;16.95;7.20;;;0.00;99.90;;;;;;5035080;28;20045;-66
2022/01/10 02:51:08;;;;;;;22.25;7.68;;;-0.10;99.90;;;;;;5016423;28;20099;-65
2022/01/10 02:53:34;;;;;;;20.15;7.85;;;0.00;99.90;;;;;;5016784;28;20458;-66
2022/01/10 02:56:00;;;;;;;24.02;8.70;;;-0.10;99.90;;;;;;5049551;28;20107;-66
2022/01/10 02:58:25;;;;;;;22.95;8.27;;;-0.10;99.90;;;;;;5016340;28;20092;-66
2022/01/10 03:00:51;;;;;;;16.83;7.40;;;-0.10;99.90;;;;;;5050986;28;20049;-66
2022/01/10 03:03:16;;;;;;;17.98;8.40;;;-0.10;99.90;;;;;;5054230;28;20053;-66
2022/01/10 03:05:42;;;;;;;20.88;7.53;;;-0.20;99.90;;;;;;5035088;28;20611;-66
2022/01/10 03:08:08;;;;;;;20.83;7.75;;;-0.20;99.90;;;;;;5016145;28;20057;-66
2022/01/10 03:10:33;;;;;;;16.20;7.88;;;-0.20;99.90;;;;;;5002958;28;20132;-65
2022/01/10 03:13:00;;;;;;;19.67;7.68;;;-0.30;99.90;;;;;;5016209;28;20050;-65
2022/01/10 03:15:26;;;;;;;19.10;7.50;;;-0.30;99.90;;;;;;5016899;28;20426;-66
2022/01/10 03:17:52;;;;;;;24.17;8.63;;;-0.30;99.90;;;;;;5015647;28;20120;-65
2022/01/10 03:20:18;;;;;;;26.88;8.68;;;-0.30;99.90;;;;;;5016311;28;20136;-65
2022/01/10 03:22:44;;;;;;;23.02;8.85;;;-0.30;99.90;;;;;;5016497;28;20045;-65
2022/01/10 03:25:09;;;;;;;22.83;9.25;;;-0.30;99.90;;;;;;5017611;28;20062;-66
2022/01/10 03:27:36;;;;;;;24.40;8.57;;;-0.30;99.90;;;;;;5016177;28;20095;-67
2022/01/10 03:30:02;;;;;;;17.25;7.90;;;-0.30;99.90;;;;;;5032661;28;20437;-65
2022/01/10 03:32:28;;;;;;;27.83;8.50;;;-0.30;99.90;;;;;;5031751;28;20053;-65
2022/01/10 03:34:54;;;;;;;24.65;9.10;;;-0.30;99.90;;;;;;5032605;28;20076;-65
2022/01/10 03:37:19;;;;;;;21.60;9.27;;;-0.30;99.90;;;;;;5015542;28;20383;-66
2022/01/10 03:39:45;;;;;;;23.90;9.65;;;-0.30;99.90;;;;;;5031959;28;20041;-66
2022/01/10 03:42:12;;;;;;;29.95;10.00;;;-0.30;99.90;;;;;;5014879;28;20539;-66
2022/01/10 03:44:37;;;;;;;19.85;8.70;;;-0.30;99.90;;;;;;5033977;28;20061;-66
2022/01/10 03:47:03;;;;;;;23.02;9.18;;;-0.40;99.90;;;;;;5031438;28;20075;-66
2022/01/10 03:49:29;;;;;;;26.90;10.30;;;-0.30;99.90;;;;;;4999183;28;20053;-66
2022/01/10 03:51:54;;;;;;;23.95;9.95;;;-0.40;99.90;;;;;;4998658;28;20498;-66
2022/01/10 03:54:20;;;;;;;35.25;11.65;;;-0.30;99.90;;;;;;5016047;28;20080;-66
2022/01/10 03:56:47;;;;;;;32.00;11.63;;;-0.40;99.90;;;;;;4995828;28;20061;-64
2022/01/10 03:59:12;;;;;;;25.50;10.55;;;-0.30;99.90;;;;;;4979567;28;20092;-65
2022/01/10 04:01:39;;;;;;;18.67;10.48;;;-0.40;99.90;;;;;;4994995;28;20053;-65
2022/01/10 04:04:06;;;;;;;31.27;12.85;;;-0.40;99.90;;;;;;5000574;28;20462;-66
2022/01/10 04:06:31;;;;;;;28.45;12.40;;;-0.40;99.90;;;;;;5015247;28;20053;-66
2022/01/10 04:08:57;;;;;;;31.40;12.13;;;-0.30;99.90;;;;;;4998952;28;20057;-66
2022/01/10 04:11:22;;;;;;;34.33;13.90;;;-0.30;99.90;;;;;;4995679;28;20061;-64
2022/01/10 04:13:48;;;;;;;35.05;14.70;;;-0.30;99.90;;;;;;4979313;28;20046;-66
2022/01/10 04:16:14;;;;;;;30.92;13.65;;;-0.40;99.90;;;;;;5011196;28;20050;-64
2022/01/10 04:18:39;;;;;;;29.30;12.82;;;-0.40;99.90;;;;;;5011832;28;20101;-65
2022/01/10 04:21:05;;;;;;;30.58;12.55;;;-0.30;99.90;;;;;;4995476;28;20061;-66
2022/01/10 04:23:30;;;;;;;28.88;14.18;;;-0.30;99.90;;;;;;5013623;28;20145;-66
2022/01/10 04:25:56;;;;;;;28.25;13.48;;;-0.40;99.90;;;;;;4995685;28;20836;-67
2022/01/10 04:28:22;;;;;;;26.30;12.70;;;-0.40;99.90;;;;;;4995426;28;20077;-66
2022/01/10 04:30:48;;;;;;;28.90;13.90;;;-0.50;99.90;;;;;;4995038;28;20076;-64
2022/01/10 04:33:17;;;;;;;26.83;12.43;;;-0.40;99.90;;;;;;5011931;28;20050;-64
2022/01/10 04:35:44;;;;;;;29.80;12.98;;;-0.40;99.90;;;;;;4995554;28;20133;-66
2022/01/10 04:38:10;;;;;;;32.25;12.27;;;-0.50;99.90;;;;;;5011743;28;20103;-65
2022/01/10 04:40:36;;;;;;;29.35;13.32;;;-0.50;99.90;;;;;;5014919;28;20140;-66
2022/01/10 04:43:01;;;;;;;23.30;11.50;;;-0.50;99.90;;;;;;5014659;28;20428;-65
2022/01/10 04:45:27;;;;;;;22.70;11.07;;;-0.50;99.90;;;;;;5015511;28;20107;-65
2022/01/10 04:47:53;;;;;;;31.45;12.25;;;-0.50;99.90;;;;;;5014460;28;20359;-65
2022/01/10 04:52:52;;;;;;;22.67;11.38;;;-0.60;99.90;;;;;;5015266;28;20057;-65
2022/01/10 04:55:19;;;;;;;28.27;11.95;;;-0.60;99.90;;;;;;5010115;28;20132;-65
2022/01/10 04:57:45;;;;;;;29.27;12.23;;;-0.60;99.90;;;;;;5016877;28;20137;-66
2022/01/10 05:00:13;;;;;;;24.17;12.32;;;-0.60;99.90;;;;;;4982990;28;20553;-65
2022/01/10 05:02:42;;;;;;;25.00;11.27;;;-0.60;99.90;;;;;;5015764;28;20046;-65
2022/01/10 05:05:08;;;;;;;24.98;11.93;;;-0.70;99.90;;;;;;4999045;28;20464;-66
2022/01/10 05:07:33;;;;;;;17.23;10.45;;;-0.70;99.90;;;;;;5009882;28;20115;-65
2022/01/10 05:09:59;;;;;;;22.77;11.57;;;-0.70;99.90;;;;;;5018033;28;20100;-65
2022/01/10 05:12:26;;;;;;;28.45;11.15;;;-0.70;99.90;;;;;;5018705;28;20094;-65
2022/01/10 05:14:52;;;;;;;26.20;11.18;;;-0.70;99.90;;;;;;5018127;28;20045;-65
2022/01/10 05:17:19;;;;;;;21.98;11.20;;;-0.70;99.90;;;;;;5017601;28;20099;-66
2022/01/10 05:19:46;;;;;;;23.95;11.18;;;-0.70;99.90;;;;;;5018795;28;20057;-64
2022/01/10 05:22:11;;;;;;;20.23;10.57;;;-0.80;99.90;;;;;;5035514;28;20053;-65
2022/01/10 05:24:37;;;;;;;18.80;10.15;;;-0.70;99.90;;;;;;5018445;28;20049;-66
2022/01/10 05:27:03;;;;;;;23.00;10.82;;;-0.80;99.90;;;;;;5018187;28;20128;-65
2022/01/10 05:29:29;;;;;;;25.63;11.85;;;-0.80;99.90;;;;;;5017579;28;20085;-64
2022/01/10 05:31:54;;;;;;;22.65;11.20;;;-0.80;99.90;;;;;;5017915;28;20049;-66
2022/01/10 05:34:20;;;;;;;22.55;10.85;;;-0.80;99.90;;;;;;5002014;28;20080;-65
2022/01/10 05:36:45;;;;;;;20.35;10.27;;;-0.80;99.90;;;;;;5018165;28;20049;-65
2022/01/10 05:39:11;;;;;;;18.30;9.93;;;-0.80;99.90;;;;;;5017742;28;20486;-64
2022/01/10 05:41:37;;;;;;;17.27;10.75;;;-0.90;99.90;;;;;;5017973;28;20053;-65
2022/01/10 05:44:03;;;;;;;21.23;9.93;;;-0.90;99.90;;;;;;5018239;28;20402;-66
2022/01/10 05:46:29;;;;;;;17.10;10.50;;;-0.90;99.90;;;;;;5017115;28;20053;-65
2022/01/10 05:49:00;;;;;;;19.45;10.85;;;-0.90;99.90;;;;;;5035442;28;20454;-65
2022/01/10 05:51:34;;;;;;;25.50;12.23;;;-0.90;99.90;;;;;;5017309;28;20045;-65
2022/01/10 05:54:04;;;;;;;20.52;11.52;;;-0.90;99.90;;;;;;5015788;28;20045;-63
2022/01/10 05:56:30;;;;;;;22.75;11.68;;;-1.00;99.90;;;;;;5017665;28;20045;-66
2022/01/10 05:58:56;;;;;;;25.95;11.95;;;-1.00;99.90;;;;;;5034053;28;20434;-64
2022/01/10 06:01:21;;;;;;;29.52;13.93;;;-1.00;99.90;;;;;;5017450;28;20095;-65
2022/01/10 06:03:47;;;;;;;23.50;11.77;;;-1.00;99.90;;;;;;5016293;28;20059;-66
2022/01/10 06:06:13;;;;;;;26.83;12.57;;;-1.00;99.90;;;;;;5017097;28;20057;-65
2022/01/10 06:08:39;;;;;;;28.75;12.13;;;-1.00;99.90;;;;;;5017753;28;20135;-64
2022/01/10 06:11:04;;;;;;;22.73;11.65;;;-1.00;99.90;;;;;;5035310;28;20510;-65
2022/01/10 06:13:30;;;;;;;23.80;11.88;;;-1.00;99.90;;;;;;5017834;28;20449;-65
2022/01/10 06:15:56;;;;;;;111.13;19.17;;;-1.00;99.90;;;;;;5017729;28;20053;-65
2022/01/10 06:18:21;;;;;;;86.88;17.67;;;-1.00;99.90;;;;;;5017468;28;20041;-65
2022/01/10 06:20:47;;;;;;;25.55;13.05;;;-1.00;99.90;;;;;;5017135;28;20076;-65
2022/01/10 06:23:13;;;;;;;22.42;13.40;;;-1.00;99.90;;;;;;5005761;28;20058;-66
2022/01/10 06:25:40;;;;;;;43.13;19.45;;;-1.00;99.90;;;;;;4997340;28;20519;-65
2022/01/10 06:28:06;;;;;;;42.42;21.33;;;-1.00;99.90;;;;;;4997835;28;20054;-65
2022/01/10 06:30:32;;;;;;;43.25;19.48;;;-1.10;99.90;;;;;;4997549;28;20081;-66
2022/01/10 06:32:58;;;;;;;32.20;14.32;;;-1.00;99.90;;;;;;5013529;28;20081;-65
2022/01/10 06:35:23;;;;;;;24.70;12.48;;;-1.10;99.90;;;;;;4997533;28;20057;-67
2022/01/10 06:37:52;;;;;;;31.10;13.65;;;-1.10;99.90;;;;;;5003545;28;20042;-64
2022/01/10 06:40:19;;;;;;;30.50;13.15;;;-1.10;99.90;;;;;;5014993;28;20092;-65
2022/01/10 06:42:45;;;;;;;24.73;12.95;;;-1.00;99.90;;;;;;5015958;28;20053;-66
2022/01/10 06:45:12;;;;;;;27.23;13.60;;;-1.10;99.90;;;;;;5034257;28;20045;-66
2022/01/10 06:47:38;;;;;;;33.15;15.27;;;-1.10;99.90;;;;;;4998491;28;20054;-67
2022/01/10 06:50:06;;;;;;;29.65;14.18;;;-1.00;99.90;;;;;;5019254;28;20429;-65
2022/01/10 06:52:34;;;;;;;28.58;14.27;;;-1.00;99.90;;;;;;5019402;28;20049;-65
2022/01/10 06:55:01;;;;;;;27.08;14.55;;;-1.00;99.90;;;;;;5017380;28;20068;-66
2022/01/10 06:57:27;;;;;;;25.67;13.48;;;-1.00;99.90;;;;;;5016063;28;20579;-65
2022/01/10 06:59:53;;;;;;;22.23;12.77;;;-1.10;99.90;;;;;;5016449;28;20060;-67
2022/01/10 07:02:19;;;;;;;24.75;12.85;;;-1.10;99.90;;;;;;5015485;28;20405;-64
2022/01/10 07:04:45;;;;;;;22.80;12.10;;;-1.10;99.90;;;;;;5013057;28;20068;-67
2022/01/10 07:07:10;;;;;;;24.23;12.52;;;-1.10;99.90;;;;;;5016015;28;20128;-65
2022/01/10 07:09:36;;;;;;;26.02;12.82;;;-1.20;99.90;;;;;;5034791;28;20061;-65
2022/01/10 07:12:03;;;;;;;26.88;13.25;;;-1.20;99.90;;;;;;5036620;28;20485;-66
2022/01/10 07:14:32;;;;;;;22.45;12.05;;;-1.20;99.90;;;;;;5019893;28;20079;-65
2022/01/10 07:16:57;;;;;;;27.60;13.13;;;-1.20;99.90;;;;;;5035186;28;20366;-66
2022/01/10 07:19:23;;;;;;;31.98;16.65;;;-1.20;99.90;;;;;;5026439;28;20073;-66
2022/01/10 07:21:49;;;;;;;38.58;20.10;;;-1.20;99.90;;;;;;5016386;28;20140;-65
2022/01/10 07:24:15;;;;;;;32.22;14.90;;;-1.30;99.90;;;;;;5033828;28;20491;-66
2022/01/10 07:26:41;;;;;;;27.25;14.80;;;-1.30;99.90;;;;;;5034319;28;20129;-65
2022/01/10 07:29:08;;;;;;;50.38;23.92;;;-1.30;99.90;;;;;;5016205;28;20061;-64
2022/01/10 07:31:35;;;;;;;31.70;18.15;;;-1.30;99.90;;;;;;5015750;28;20057;-66
2022/01/10 07:34:01;;;;;;;43.40;22.73;;;-1.30;99.90;;;;;;5027352;28;20049;-66
2022/01/10 07:36:26;;;;;;;42.50;22.80;;;-1.30;99.90;;;;;;5035872;28;20187;-64
2022/01/10 07:38:58;;;;;;;43.22;23.45;;;-1.30;99.90;;;;;;5111434;27;20461;-65
2022/01/10 07:41:24;;;;;;;39.13;19.95;;;-1.30;99.90;;;;;;5092480;28;20762;-64
2022/01/10 07:43:50;;;;;;;256.88;38.80;;;-1.30;99.90;;;;;;5109603;28;20056;-64
2022/01/10 07:46:17;;;;;;;32.20;16.52;;;-1.30;99.90;;;;;;5109123;28;20055;-64
2022/01/10 07:48:44;;;;;;;35.75;16.85;;;-1.40;99.90;;;;;;5109049;28;20050;-64
2022/01/10 07:51:11;;;;;;;30.13;16.08;;;-1.40;99.90;;;;;;5142892;27;20058;-63
2022/01/10 07:53:38;;;;;;;30.05;16.27;;;-1.30;99.90;;;;;;5108347;28;20492;-64
2022/01/10 07:56:04;;;;;;;30.33;16.67;;;-1.30;99.90;;;;;;5109201;28;20078;-64
2022/01/10 07:58:30;;;;;;;29.45;15.88;;;-1.30;99.90;;;;;;5109099;28;20435;-64
2022/01/10 08:00:56;;;;;;;30.85;15.95;;;-1.30;99.90;;;;;;5108951;28;20048;-64
2022/01/10 08:03:22;;;;;;;28.98;15.07;;;-1.30;99.90;;;;;;5109090;28;20549;-64
2022/01/10 08:05:48;;;;;;;32.45;16.27;;;-1.30;99.90;;;;;;5109081;28;20056;-64
2022/01/10 08:08:13;;;;;;;28.00;14.30;;;-1.30;99.90;;;;;;5109403;28;20051;-64
2022/01/10 08:10:39;;;;;;;29.08;15.25;;;-1.40;99.90;;;;;;5119105;28;20063;-64
2022/01/10 08:13:04;;;;;;;28.80;15.18;;;-1.30;99.90;;;;;;5109775;28;20060;-63
2022/01/10 08:15:30;;;;;;;24.75;14.88;;;-1.30;99.90;;;;;;5108728;28;20044;-64
2022/01/10 08:17:57;;;;;;;26.52;14.43;;;-1.30;99.90;;;;;;5108035;28;20047;-64
2022/01/10 08:20:22;;;;;;;25.52;14.55;;;-1.20;99.90;;;;;;5108825;28;20048;-64
2022/01/10 08:22:48;;;;;;;30.77;16.15;;;-1.30;99.90;;;;;;5108685;28;20101;-64
2022/01/10 08:25:13;;;;;;;28.80;15.18;;;-1.30;99.90;;;;;;5108676;28;20043;-66
2022/01/10 08:27:39;;;;;;;30.88;15.25;;;-1.30;99.90;;;;;;5108823;28;20065;-64
2022/01/10 08:30:06;;;;;;;23.27;14.48;;;-1.20;99.90;;;;;;5108395;28;20054;-64
2022/01/10 08:32:31;;;;;;;31.20;15.15;;;-1.30;99.90;;;;;;5108379;28;20150;-65
2022/01/10 08:34:57;;;;;;;29.00;15.95;;;-1.20;99.90;;;;;;5109198;28;20488;-64
2022/01/10 08:37:23;;;;;;;30.35;16.10;;;-1.20;99.90;;;;;;5107988;28;20059;-63
2022/01/10 08:39:51;;;;;;;27.98;14.73;;;-1.20;99.90;;;;;;5107871;28;20052;-65
2022/01/10 08:42:18;;;;;;;26.05;14.85;;;-1.20;99.90;;;;;;5110020;28;20044;-64
2022/01/10 08:44:43;;;;;;;29.23;15.57;;;-1.20;99.90;;;;;;5109551;28;20051;-63
2022/01/10 08:47:09;;;;;;;28.30;15.82;;;-1.20;99.90;;;;;;5109447;28;20606;-63
2022/01/10 08:49:34;;;;;;;27.27;16.20;;;-1.20;99.90;;;;;;5098640;28;20404;-64
2022/01/10 08:52:00;;;;;;;27.85;15.15;;;-1.10;99.90;;;;;;5095779;28;20060;-63
2022/01/10 08:54:26;;;;;;;33.13;16.85;;;-1.10;99.90;;;;;;5093994;28;20162;-64
2022/01/10 08:56:53;;;;;;;32.42;19.08;;;-1.00;99.90;;;;;;5094712;28;20055;-64
2022/01/10 08:59:20;;;;;;;28.58;17.10;;;-1.00;99.90;;;;;;5094124;28;20048;-64
2022/01/10 09:01:46;;;;;;;31.65;17.27;;;-1.00;99.90;;;;;;5094353;28;20055;-65
2022/01/10 09:04:16;;;;;;;29.85;16.23;;;-0.90;99.90;;;;;;5094311;28;20090;-63
2022/01/10 09:06:46;;;;;;;28.50;16.90;;;-0.80;99.90;;;;;;5094482;28;20047;-64
2022/01/10 09:09:12;;;;;;;31.38;18.15;;;-0.80;99.90;;;;;;5094428;28;20052;-63
2022/01/10 09:11:38;;;;;;;35.08;18.70;;;-0.80;99.90;;;;;;5094941;28;20056;-63
2022/01/10 09:14:05;;;;;;;30.17;18.52;;;;;;;;;;5095830;28;20075;-63
2022/01/10 09:16:31;;;;;;;30.13;18.17;;;-0.70;99.90;;;;;;5076781;28;20517;-65
2022/01/10 09:18:56;;;;;;;34.92;20.85;;;-0.60;99.90;;;;;;5079564;28;20053;-63
2022/01/10 09:21:22;;;;;;;37.97;19.73;;;-0.50;99.90;;;;;;5080195;28;20712;-64
2022/01/10 09:23:48;;;;;;;44.08;21.08;;;-0.50;99.90;;;;;;5093822;28;20433;-64
2022/01/10 09:26:13;;;;;;;34.15;19.13;;;-0.40;99.90;;;;;;5076031;28;20066;-65
2022/01/10 09:28:39;;;;;;;37.13;20.33;;;-0.40;99.90;;;;;;5073920;28;20382;-63
2022/01/10 09:31:04;;;;;;;44.38;23.65;;;-0.30;99.90;;;;;;5087975;28;20036;-64
2022/01/10 09:33:30;;;;;;;44.22;22.10;;;-0.30;99.90;;;;;;5074627;28;20154;-64
2022/01/10 09:35:56;;;;;;;39.80;20.75;;;-0.30;99.90;;;;;;5073585;28;20453;-64
2022/01/10 09:38:22;;;;;;;36.72;21.52;;;-0.20;99.90;;;;;;5073171;28;20057;-64
2022/01/10 09:40:48;;;;;;;41.42;21.10;;;-0.10;99.90;;;;;;5091698;28;20044;-65
2022/01/10 09:43:13;;;;;;;44.97;23.23;;;0.00;99.90;;;;;;5093418;28;20055;-63
2022/01/10 09:45:39;;;;;;;42.03;22.45;;;0.00;99.90;;;;;;5092655;28;20050;-64
2022/01/10 09:48:05;;;;;;;44.45;24.13;;;0.10;99.90;;;;;;5093113;28;20404;-64
2022/01/10 09:50:31;;;;;;;42.28;22.70;;;0.10;99.90;;;;;;5093521;28;20048;-63
2022/01/10 09:52:56;;;;;;;47.55;24.77;;;0.10;99.90;;;;;;5077996;28;20052;-63
2022/01/10 09:55:22;;;;;;;41.17;21.33;;;0.20;99.90;;;;;;5073250;28;20067;-65
2022/01/10 09:57:48;;;;;;;45.20;23.05;;;0.30;99.90;;;;;;5106427;28;20056;-63
2022/01/10 10:00:15;;;;;;;45.60;25.00;;;0.30;99.90;;;;;;5083955;28;20059;-64
2022/01/10 10:02:41;;;;;;;47.10;24.10;;;0.40;99.90;;;;;;5085542;28;20075;-63
2022/01/10 10:05:10;;;;;;;49.35;24.35;;;0.50;99.90;;;;;;5090261;28;20048;-64
2022/01/10 10:07:37;;;;;;;55.40;26.58;;;0.60;99.90;;;;;;5091843;28;20062;-63
2022/01/10 10:10:07;;;;;;;43.97;24.30;;;0.60;99.90;;;;;;5093100;28;20063;-63
2022/01/10 10:12:33;;;;;;;44.97;24.55;;;0.70;99.90;;;;;;5094368;28;20051;-64
2022/01/10 10:15:04;;;;;;;50.47;26.02;;;0.70;99.90;;;;;;5091984;28;20397;-64
2022/01/10 10:17:30;;;;;;;51.05;24.73;;;1.10;99.90;;;;;;5092342;28;20481;-64
2022/01/10 10:19:56;;;;;;;44.65;24.08;;;0.90;99.90;;;;;;5090690;28;20089;-64
2022/01/10 10:22:23;;;;;;;42.17;24.50;;;0.90;99.90;;;;;;5126344;27;20055;-64
2022/01/10 10:24:49;;;;;;;47.08;25.77;;;0.90;99.90;;;;;;5092852;28;20063;-63
2022/01/10 10:27:20;;;;;;;49.53;25.98;;;1.00;99.90;;;;;;5126411;27;20488;-64
2022/01/10 10:29:49;;;;;;;48.38;25.23;;;1.20;99.90;;;;;;5093807;28;20048;-66
2022/01/10 10:32:17;;;;;;;45.38;23.83;;;1.10;99.90;;;;;;5093543;28;20059;-63
2022/01/10 10:34:43;;;;;;;54.78;27.60;;;1.10;99.90;;;;;;5088164;28;20534;-66
2022/01/10 10:37:10;;;;;;;49.60;26.88;;;1.60;99.90;;;;;;5072400;28;20048;-64
2022/01/10 10:39:40;;;;;;;41.25;24.15;;;1.40;99.90;;;;;;5073731;28;20060;-63
2022/01/10 10:42:10;;;;;;;51.47;26.67;;;1.70;99.90;;;;;;5073549;28;20063;-64
2022/01/10 10:44:36;;;;;;;51.15;27.73;;;1.60;99.90;;;;;;5072076;28;20048;-63
2022/01/10 10:47:03;;;;;;;45.38;25.65;;;1.60;99.90;;;;;;5059651;28;20094;-63
2022/01/10 10:49:39;;;;;;;42.40;25.42;;;1.70;99.90;;;;;;5092595;28;20063;-64
2022/01/10 10:52:08;;;;;;;50.03;26.45;;;1.80;99.90;;;;;;5092037;28;20075;-64
2022/01/10 10:54:35;;;;;;;48.25;27.77;;;1.80;99.90;;;;;;5093675;28;20095;-65
2022/01/10 10:57:03;;;;;;;48.97;25.25;;;2.40;99.90;;;;;;5092310;28;20048;-64
2022/01/10 10:59:31;;;;;;;51.53;27.75;;;2.00;99.90;;;;;;5093642;28;20052;-65
2022/01/10 11:01:58;;;;;;;52.35;27.45;;;2.20;99.90;;;;;;5090776;28;20048;-65
2022/01/10 11:04:24;;;;;;;48.33;26.48;;;2.10;99.90;;;;;;5091453;28;20056;-66
2022/01/10 11:06:51;;;;;;;40.88;25.73;;;2.20;99.90;;;;;;5091336;28;20445;-66
2022/01/10 11:09:17;;;;;;;48.15;28.45;;;2.20;99.90;;;;;;5078545;28;20082;-65
2022/01/10 11:11:44;;;;;;;48.33;26.88;;;2.30;99.90;;;;;;5071784;28;20163;-65
2022/01/10 11:14:13;;;;;;;52.33;30.35;;;2.40;99.90;;;;;;5063832;28;20431;-66
2022/01/10 11:16:41;;;;;;;46.53;27.55;;;2.40;99.90;;;;;;5071276;28;20136;-65
2022/01/10 11:19:14;;;;;;;51.92;29.63;;;2.40;99.90;;;;;;5075316;28;20059;-65
2022/01/10 11:21:41;;;;;;;48.38;29.10;;;2.60;99.90;;;;;;5088277;28;20055;-66
2022/01/10 11:24:06;;;;;;;59.47;33.72;;;2.60;99.90;;;;;;5089772;28;20040;-66
2022/01/10 11:26:39;;;;;;;47.85;28.55;;;2.70;99.90;;;;;;5090523;28;20056;-65
2022/01/10 11:29:09;;;;;;;55.05;29.58;;;2.90;99.90;;;;;;5086039;28;20083;-65
2022/01/10 11:31:36;;;;;;;50.28;28.75;;;2.90;99.90;;;;;;5091784;28;20048;-66
2022/01/10 11:34:03;;;;;;;53.03;32.67;;;3.00;99.90;;;;;;5091974;28;20479;-67
2022/01/10 11:36:29;;;;;;;47.00;27.27;;;2.90;99.90;;;;;;5091462;28;20044;-66
2022/01/10 11:38:56;;;;;;;45.67;27.40;;;3.00;99.90;;;;;;5091328;28;20079;-65
2022/01/10 11:41:25;;;;;;;46.67;28.77;;;3.00;99.90;;;;;;5075482;28;20147;-67
2022/01/10 11:44:03;;;;;;;43.88;27.83;;;3.10;99.90;;;;;;5071793;28;20489;-65
2022/01/10 11:46:39;;;;;;;41.30;27.27;;;3.20;99.90;;;;;;5075111;28;20059;-65
2022/01/10 11:49:08;;;;;;;43.75;26.27;;;3.20;99.90;;;;;;5071683;28;20053;-66
2022/01/10 11:51:35;;;;;;;47.95;26.30;;;3.30;99.90;;;;;;5086755;28;20094;-67
2022/01/10 11:54:26;;;;;;;41.42;25.92;;;3.50;99.90;;;;;;5087752;28;20519;-65
2022/01/10 11:56:58;;;;;;;38.97;27.52;;;3.50;99.90;;;;;;5072253;28;20404;-65
2022/01/10 11:59:39;;;;;;;38.78;25.10;;;3.50;99.90;;;;;;5071300;28;20060;-65
2022/01/10 12:02:10;;;;;;;45.45;25.95;;;3.70;99.90;;;;;;5071082;28;20373;-67
2022/01/10 12:04:44;;;;;;;38.63;25.05;;;3.60;99.90;;;;;;5071258;28;20072;-67
2022/01/10 12:07:12;;;;;;;41.22;25.85;;;3.80;99.90;;;;;;5071327;28;20066;-68
2022/01/10 12:09:38;;;;;;;37.63;25.73;;;4.00;99.90;;;;;;5082636;28;20446;-65
2022/01/10 12:12:06;;;;;;;35.53;24.75;;;4.10;99.90;;;;;;5090141;28;20091;-67
2022/01/10 12:14:32;;;;;;;37.97;27.08;;;3.90;99.90;;;;;;5091556;28;20063;-66
2022/01/10 12:16:59;;;;;;;38.38;25.42;;;3.90;99.90;;;;;;5090799;28;20044;-66
2022/01/10 12:19:25;;;;;;;38.85;27.67;;;4.00;99.90;;;;;;5091195;28;20063;-67
2022/01/10 12:21:52;;;;;;;36.30;27.92;;;3.90;99.90;;;;;;5074050;28;20056;-66
2022/01/10 12:24:18;;;;;;;36.35;24.48;;;4.10;99.90;;;;;;5092630;28;20076;-66
2022/01/10 12:26:44;;;;;;;42.33;27.38;;;4.10;99.90;;;;;;5090520;28;20130;-66
2022/01/10 12:29:12;;;;;;;38.22;24.40;;;4.20;99.90;;;;;;5096173;28;20078;-66
2022/01/10 12:31:40;;;;;;;32.40;23.23;;;4.30;99.90;;;;;;5094323;28;20055;-67
2022/01/10 12:34:08;;;;;;;33.05;22.95;;;4.40;99.90;;;;;;5087800;28;20508;-68
2022/01/10 12:36:36;;;;;;;35.88;21.92;;;4.50;99.90;;;;;;5074437;28;20063;-67
2022/01/10 12:39:19;;;;;;;31.05;22.83;;;4.80;99.90;;;;;;5075804;28;20518;-67
2022/01/10 12:41:45;;;;;;;30.38;21.38;;;4.80;99.90;;;;;;5087182;28;20056;-67
2022/01/10 12:44:11;;;;;;;29.58;21.17;;;4.90;99.90;;;;;;5092125;28;20081;-66